Time;durP1;ratioP1;P1;durP2;ratioP2;P2;SDS_P1;SDS_P2;PMS_P1;PMS_P2;Temp;Humidity;BMP_temperature;BMP_pressure;BME280_temperature;BME280_humidity;BME280_pressure;Samples;Min_cycle;Max_cycle;Signal;HPM_P1;HPM_P2
2022/01/03 00:02:43;;;;;;;;;;;22.00;51.70;;;;;;6341415;27;20561;-43
2022/01/03 00:05:45;;;;;;;;;;;21.50;51.40;;;;;;6332061;27;19934;-49
2022/01/03 00:08:47;;;;;;;;;;;21.80;51.50;;;;;;6336664;27;20037;-45
2022/01/03 00:11:48;;;;;;;;;;;21.90;51.80;;;;;;6316574;27;19924;-46
2022/01/03 00:14:54;;;;;;;;;;;21.70;51.60;;;;;;6332636;27;19935;-48
2022/01/03 00:17:55;;;;;;;;;;;21.70;51.50;;;;;;6326427;27;19955;-43
2022/01/03 00:20:58;;;;;;;;;;;21.30;51.30;;;;;;6305383;27;20006;-48
2022/01/03 00:24:05;;;;;;;;;;;21.70;51.60;;;;;;6307698;27;20058;-46
2022/01/03 00:27:10;;;;;;;;;;;21.50;51.50;;;;;;6326937;27;19934;-48
2022/01/03 00:30:12;;;;;;;;;;;21.60;51.50;;;;;;6348845;27;20049;-45
2022/01/03 00:33:14;;;;;;;;;;;21.50;51.40;;;;;;6330925;27;20058;-47
2022/01/03 00:36:17;;;;;;;;;;;21.50;51.50;;;;;;6325409;27;19970;-49
2022/01/03 00:39:18;;;;;;;;;;;22.10;51.80;;;;;;6327062;27;19998;-47
2022/01/03 00:42:21;;;;;;;;;;;21.80;51.70;;;;;;6322996;27;19927;-45
2022/01/03 00:45:23;;;;;;;;;;;21.50;51.50;;;;;;6332813;27;19966;-45
2022/01/03 00:48:24;;;;;;;;;;;21.60;51.60;;;;;;6325654;27;20680;-44
2022/01/03 00:51:26;;;;;;;;;;;21.80;51.70;;;;;;6333721;27;20045;-47
2022/01/03 00:54:30;;;;;;;;;;;21.60;51.50;;;;;;6345751;27;19923;-47
2022/01/03 00:57:42;;;;;;;;;;;21.40;51.60;;;;;;6337230;27;19930;-47
2022/01/03 01:00:46;;;;;;;;;;;21.90;51.80;;;;;;6341842;27;19963;-43
2022/01/03 01:03:48;;;;;;;;;;;21.50;51.50;;;;;;6330461;27;19927;-49
2022/01/03 01:06:52;;;;;;;;;;;21.90;51.80;;;;;;6347999;27;20041;-45
2022/01/03 01:09:54;;;;;;;;;;;21.90;51.80;;;;;;6336406;27;19978;-47
2022/01/03 01:12:56;;;;;;;;;;;21.40;51.50;;;;;;6329991;27;20482;-45
2022/01/03 01:16:02;;;;;;;;;;;21.60;51.50;;;;;;6317807;27;19927;-45
2022/01/03 01:19:08;;;;;;;;;;;21.80;51.70;;;;;;6328829;27;19927;-47
2022/01/03 01:22:10;;;;;;;;;;;21.60;51.60;;;;;;6335914;27;20027;-45
2022/01/03 01:28:28;;;;;;;;;;;21.50;51.60;;;;;;6313378;27;19972;-47
2022/01/03 01:31:33;;;;;;;;;;;21.60;51.80;;;;;;6316123;27;19927;-44
2022/01/03 01:34:34;;;;;;;;;;;21.60;51.60;;;;;;6333314;27;19927;-44
2022/01/03 01:37:36;;;;;;;;;;;21.30;51.50;;;;;;6322980;27;19927;-44
2022/01/03 01:40:43;;;;;;;;;;;22.10;51.90;;;;;;6329749;27;19938;-43
2022/01/03 01:43:46;;;;;;;;;;;21.60;51.50;;;;;;6334580;27;19933;-44
2022/01/03 01:46:53;;;;;;;;;;;21.50;51.50;;;;;;6348337;27;19923;-47
2022/01/03 01:49:56;;;;;;;;;;;21.30;51.40;;;;;;6332794;27;21721;-48
2022/01/03 01:52:59;;;;;;;;;;;21.50;51.50;;;;;;6327309;27;20350;-44
2022/01/03 01:56:02;;;;;;;;;;;21.50;51.50;;;;;;6335977;27;19930;-43
2022/01/03 01:59:12;;;;;;;;;;;21.30;51.40;;;;;;6343634;27;20825;-47
2022/01/03 02:02:16;;;;;;;;;;;21.40;51.50;;;;;;6332026;27;19996;-46
2022/01/03 02:05:27;;;;;;;;;;;21.30;51.50;;;;;;6349815;27;19952;-44
2022/01/03 02:08:32;;;;;;;;;;;21.30;51.30;;;;;;6332017;27;19924;-44
2022/01/03 02:11:47;;;;;;;;;;;21.90;51.70;;;;;;6340821;27;19927;-44
2022/01/03 02:14:51;;;;;;;;;;;21.80;51.70;;;;;;6339073;27;19924;-44
2022/01/03 02:17:53;;;;;;;;;;;21.40;51.50;;;;;;6342107;27;19927;-44
2022/01/03 02:20:55;;;;;;;;;;;21.50;51.60;;;;;;6354074;27;19935;-46
2022/01/03 02:23:57;;;;;;;;;;;21.60;51.70;;;;;;6330022;27;19930;-46
2022/01/03 02:27:00;;;;;;;;;;;21.20;51.50;;;;;;6336949;27;19923;-45
2022/01/03 02:30:03;;;;;;;;;;;21.40;51.60;;;;;;6322945;27;19962;-47
2022/01/03 02:33:04;;;;;;;;;;;21.40;51.50;;;;;;6334030;27;19923;-46
2022/01/03 02:36:07;;;;;;;;;;;21.40;51.50;;;;;;6337098;27;19985;-46
2022/01/03 02:39:11;;;;;;;;;;;21.40;51.50;;;;;;6353661;27;19932;-45
2022/01/03 02:42:12;;;;;;;;;;;21.90;51.70;;;;;;6346443;27;19923;-46
2022/01/03 02:45:15;;;;;;;;;;;21.60;51.70;;;;;;6338563;27;19931;-48
2022/01/03 02:48:20;;;;;;;;;;;21.30;51.50;;;;;;6334262;27;19959;-44
2022/01/03 02:51:22;;;;;;;;;;;21.50;51.60;;;;;;6337426;27;19930;-45
2022/01/03 02:54:24;;;;;;;;;;;21.50;51.60;;;;;;6350566;27;19923;-45
2022/01/03 02:57:25;;;;;;;;;;;21.50;51.60;;;;;;6347804;27;19996;-44
2022/01/03 03:00:29;;;;;;;;;;;21.60;51.60;;;;;;6352269;27;19923;-44
2022/01/03 03:03:31;;;;;;;;;;;21.40;51.50;;;;;;6333013;27;20476;-43
2022/01/03 03:06:34;;;;;;;;;;;21.70;51.60;;;;;;6338507;27;19923;-43
2022/01/03 03:09:36;;;;;;;;;;;21.60;51.60;;;;;;6342910;27;19933;-43
2022/01/03 03:12:39;;;;;;;;;;;21.80;51.80;;;;;;6346340;27;19934;-43
2022/01/03 03:15:40;;;;;;;;;;;21.30;51.40;;;;;;6312606;28;19923;-43
2022/01/03 03:18:43;;;;;;;;;;;21.70;51.70;;;;;;6315418;27;19930;-43
2022/01/03 03:21:45;;;;;;;;;;;21.50;51.50;;;;;;6331643;27;19979;-45
2022/01/03 03:24:46;;;;;;;;;;;21.30;51.50;;;;;;6343200;27;20015;-44
2022/01/03 03:27:48;;;;;;;;;;;21.50;51.60;;;;;;6328062;27;19935;-43
2022/01/03 03:30:55;;;;;;;;;;;21.60;51.60;;;;;;6319883;27;19990;-43
2022/01/03 03:34:08;;;;;;;;;;;21.40;51.50;;;;;;6340648;27;19923;-44
2022/01/03 03:37:10;;;;;;;;;;;21.40;51.60;;;;;;6337033;27;19923;-45
2022/01/03 03:40:13;;;;;;;;;;;21.30;51.50;;;;;;6336956;27;20804;-44
2022/01/03 03:43:16;;;;;;;;;;;21.80;51.70;;;;;;6342487;27;19923;-46
2022/01/03 03:46:19;;;;;;;;;;;21.70;51.60;;;;;;6318984;27;19967;-46
2022/01/03 03:49:21;;;;;;;;;;;21.50;51.60;;;;;;6333403;27;19928;-46
2022/01/03 03:52:23;;;;;;;;;;;21.40;51.60;;;;;;6353061;27;20041;-48
2022/01/03 03:55:25;;;;;;;;;;;21.40;51.60;;;;;;6349375;27;19927;-46
2022/01/03 03:58:26;;;;;;;;;;;21.40;51.60;;;;;;6347989;27;19935;-43
2022/01/03 04:01:27;;;;;;;;;;;21.40;51.60;;;;;;6349062;27;19923;-44
2022/01/03 04:04:32;;;;;;;;;;;21.60;51.70;;;;;;6327038;27;20182;-44
2022/01/03 04:07:35;;;;;;;;;;;21.60;51.80;;;;;;6338661;27;19934;-43
2022/01/03 04:10:37;;;;;;;;;;;21.60;51.70;;;;;;6343384;27;19927;-43
2022/01/03 04:13:38;;;;;;;;;;;21.80;51.80;;;;;;6330532;27;19924;-43
2022/01/03 04:16:43;;;;;;;;;;;21.40;51.60;;;;;;6329368;27;19923;-47
2022/01/03 04:19:46;;;;;;;;;;;21.40;51.60;;;;;;6315978;27;19923;-43
2022/01/03 04:22:52;;;;;;;;;;;21.60;51.70;;;;;;6330671;27;19927;-47
2022/01/03 04:25:53;;;;;;;;;;;21.50;51.70;;;;;;6353301;27;19924;-45
2022/01/03 04:28:55;;;;;;;;;;;21.40;51.60;;;;;;6335948;27;19931;-44
2022/01/03 04:31:57;;;;;;;;;;;21.40;51.60;;;;;;6335694;27;19930;-44
2022/01/03 04:34:59;;;;;;;;;;;21.80;51.80;;;;;;6336811;27;19923;-45
2022/01/03 04:38:01;;;;;;;;;;;21.40;51.60;;;;;;6330949;27;19924;-44
2022/01/03 04:41:03;;;;;;;;;;;21.50;51.60;;;;;;6336634;27;21016;-46
2022/01/03 04:44:05;;;;;;;;;;;21.80;51.70;;;;;;6343209;27;20211;-46
2022/01/03 04:47:07;;;;;;;;;;;21.40;51.60;;;;;;6355593;27;20653;-43
2022/01/03 04:50:08;;;;;;;;;;;21.70;51.80;;;;;;6339838;27;19934;-47
2022/01/03 04:53:10;;;;;;;;;;;21.30;51.60;;;;;;6332959;27;19927;-44
2022/01/03 04:56:17;;;;;;;;;;;21.40;51.60;;;;;;6332638;27;20353;-44
2022/01/03 04:59:19;;;;;;;;;;;21.50;51.70;;;;;;6332138;27;19934;-43
2022/01/03 05:02:21;;;;;;;;;;;21.70;51.80;;;;;;6340204;27;19927;-43
2022/01/03 05:05:22;;;;;;;;;;;21.60;51.70;;;;;;6338225;27;19930;-44
2022/01/03 05:08:25;;;;;;;;;;;20.90;51.30;;;;;;6326666;27;20324;-43
2022/01/03 05:11:27;;;;;;;;;;;21.30;51.50;;;;;;6344201;27;20605;-46
2022/01/03 05:14:28;;;;;;;;;;;21.80;51.80;;;;;;6331654;27;19924;-46
2022/01/03 05:17:31;;;;;;;;;;;21.30;51.50;;;;;;6346167;27;21332;-43
2022/01/03 05:20:33;;;;;;;;;;;21.10;51.40;;;;;;6342642;27;20242;-45
2022/01/03 05:23:35;;;;;;;;;;;21.20;51.50;;;;;;6315290;27;20004;-43
2022/01/03 05:26:39;;;;;;;;;;;21.30;51.50;;;;;;6324398;27;19923;-46
2022/01/03 05:29:40;;;;;;;;;;;21.60;51.60;;;;;;6319711;27;20463;-43
2022/01/03 05:32:41;;;;;;;;;;;21.30;51.60;;;;;;6319770;27;19930;-43
2022/01/03 05:35:44;;;;;;;;;;;21.50;51.60;;;;;;6326008;27;20032;-44
2022/01/03 05:38:46;;;;;;;;;;;21.30;51.50;;;;;;6335466;27;19927;-43
2022/01/03 05:41:48;;;;;;;;;;;21.60;51.70;;;;;;6314095;27;19923;-43
2022/01/03 05:44:51;;;;;;;;;;;21.80;51.80;;;;;;6338344;27;19923;-43
2022/01/03 05:47:53;;;;;;;;;;;21.60;51.70;;;;;;6329598;27;19931;-43
2022/01/03 05:50:55;;;;;;;;;;;21.40;51.60;;;;;;6317769;27;20025;-43
2022/01/03 05:53:58;;;;;;;;;;;21.50;51.60;;;;;;6317074;27;20666;-46
2022/01/03 05:56:59;;;;;;;;;;;21.30;51.50;;;;;;6349932;27;21143;-46
2022/01/03 06:00:03;;;;;;;;;;;21.80;51.70;;;;;;6335886;27;19933;-44
2022/01/03 06:03:15;;;;;;;;;;;21.30;51.50;;;;;;6344855;27;19933;-46
2022/01/03 06:06:30;;;;;;;;;;;21.30;51.70;;;;;;6319992;27;19930;-45
2022/01/03 06:09:32;;;;;;;;;;;21.80;51.40;;;;;;6334374;27;20984;-43
2022/01/03 06:12:36;;;;;;;;;;;21.50;51.60;;;;;;6341285;27;20690;-44
2022/01/03 06:15:38;;;;;;;;;;;21.90;51.90;;;;;;6343622;27;20033;-44
2022/01/03 06:18:43;;;;;;;;;;;21.20;51.50;;;;;;6325356;28;20777;-43
2022/01/03 06:21:45;;;;;;;;;;;21.40;51.50;;;;;;6323670;28;19966;-45
2022/01/03 06:24:50;;;;;;;;;;;21.70;51.70;;;;;;6306668;28;20707;-47
2022/01/03 06:27:53;;;;;;;;;;;21.40;51.60;;;;;;6326056;28;19927;-45
2022/01/03 06:30:55;;;;;;;;;;;21.30;51.60;;;;;;6332028;27;19932;-43
2022/01/03 06:33:57;;;;;;;;;;;21.80;51.90;;;;;;6317586;27;19923;-44
2022/01/03 06:36:58;;;;;;;;;;;21.80;51.90;;;;;;6317699;28;19924;-47
2022/01/03 06:40:06;;;;;;;;;;;21.30;51.80;;;;;;6319318;28;20821;-46
2022/01/03 06:43:07;;;;;;;;;;;21.40;51.60;;;;;;6326451;28;20006;-46
2022/01/03 06:46:09;;;;;;;;;;;21.50;51.70;;;;;;6321596;27;19930;-45
2022/01/03 06:49:10;;;;;;;;;;;21.40;51.60;;;;;;6317840;28;19927;-44
2022/01/03 06:52:13;;;;;;;;;;;21.40;51.50;;;;;;6308620;27;19965;-43
2022/01/03 06:55:15;;;;;;;;;;;21.90;51.70;;;;;;6301342;27;19928;-45
2022/01/03 06:58:20;;;;;;;;;;;21.30;51.30;;;;;;6309436;27;20049;-48
2022/01/03 07:01:25;;;;;;;;;;;21.50;51.40;;;;;;6303855;27;19927;-46
2022/01/03 07:04:27;;;;;;;;;;;21.70;51.50;;;;;;6294352;27;20043;-43
2022/01/03 07:07:29;;;;;;;;;;;21.70;51.50;;;;;;6290730;27;20151;-44
2022/01/03 07:10:31;;;;;;;;;;;21.50;51.30;;;;;;6308536;27;20031;-48
2022/01/03 07:13:41;;;;;;;;;;;21.40;51.10;;;;;;6292088;28;19935;-43
2022/01/03 07:19:59;;;;;;;;;;;21.70;51.30;;;;;;6289632;27;19934;-47
2022/01/03 07:23:01;;;;;;;;;;;21.60;51.10;;;;;;6284577;27;20736;-47
2022/01/03 07:26:03;;;;;;;;;;;21.60;51.10;;;;;;6293186;27;19920;-44
2022/01/03 07:29:04;;;;;;;;;;;22.00;51.30;;;;;;6281895;27;19988;-46
2022/01/03 07:32:06;;;;;;;;;;;22.00;51.40;;;;;;6288720;28;19927;-48
2022/01/03 07:35:08;;;;;;;;;;;21.50;50.90;;;;;;6264586;28;19934;-50
2022/01/03 07:38:09;;;;;;;;;;;21.80;51.20;;;;;;6260282;28;19927;-43
2022/01/03 07:41:11;;;;;;;;;;;22.00;51.20;;;;;;6257152;27;20300;-45
2022/01/03 07:44:13;;;;;;;;;;;22.00;51.20;;;;;;6269764;27;19928;-44
2022/01/03 07:47:15;;;;;;;;;;;21.90;51.20;;;;;;6249741;27;19994;-43
2022/01/03 07:50:17;;;;;;;;;;;21.70;50.90;;;;;;6240849;27;19960;-45
2022/01/03 07:53:18;;;;;;;;;;;22.00;51.30;;;;;;6240456;27;20069;-45
2022/01/03 07:56:20;;;;;;;;;;;21.80;51.00;;;;;;6232504;27;21132;-44
2022/01/03 07:59:21;;;;;;;;;;;21.80;50.90;;;;;;6239435;27;19934;-43
2022/01/03 08:02:23;;;;;;;;;;;21.80;51.00;;;;;;6192847;27;21710;-46
2022/01/03 08:05:25;;;;;;;;;;;22.00;51.00;;;;;;6196918;27;20057;-44
2022/01/03 08:08:26;;;;;;;;;;;21.80;50.90;;;;;;6196243;27;20003;-45
2022/01/03 08:11:28;;;;;;;;;;;22.30;51.20;;;;;;6217122;27;19931;-47
2022/01/03 08:14:30;;;;;;;;;;;22.30;51.00;;;;;;6218452;27;20057;-45
2022/01/03 08:17:32;;;;;;;;;;;22.10;50.90;;;;;;6199536;27;21844;-46
2022/01/03 08:20:33;;;;;;;;;;;21.90;50.80;;;;;;6211622;27;19935;-46
2022/01/03 08:23:34;;;;;;;;;;;22.30;50.90;;;;;;6223152;27;19927;-46
2022/01/03 08:26:38;;;;;;;;;;;22.30;50.90;;;;;;6192090;27;19930;-44
2022/01/03 08:29:39;;;;;;;;;;;22.50;51.00;;;;;;6185823;27;19927;-46
2022/01/03 08:32:40;;;;;;;;;;;22.40;51.00;;;;;;6189556;27;21149;-44
2022/01/03 08:35:42;;;;;;;;;;;22.10;50.70;;;;;;6188811;27;20655;-44
2022/01/03 08:38:43;;;;;;;;;;;22.40;50.80;;;;;;6183417;27;19996;-45
2022/01/03 08:41:45;;;;;;;;;;;22.00;50.60;;;;;;6174235;27;19934;-43
2022/01/03 08:44:46;;;;;;;;;;;22.30;50.70;;;;;;6192761;27;19927;-47
2022/01/03 08:47:48;;;;;;;;;;;22.50;50.80;;;;;;6168759;27;21902;-43
2022/01/03 08:50:49;;;;;;;;;;;22.50;50.60;;;;;;6186428;27;20857;-47
2022/01/03 08:53:51;;;;;;;;;;;22.20;50.50;;;;;;6146872;27;19928;-43
2022/01/03 08:56:53;;;;;;;;;;;22.30;50.60;;;;;;6181968;27;20005;-43
2022/01/03 08:59:54;;;;;;;;;;;22.10;50.40;;;;;;6169975;27;19934;-47
2022/01/03 09:02:56;;;;;;;;;;;22.40;50.60;;;;;;6187009;27;19971;-47
2022/01/03 09:05:58;;;;;;;;;;;22.60;50.60;;;;;;6206246;27;19927;-47
2022/01/03 09:08:59;;;;;;;;;;;22.50;50.50;;;;;;6189334;27;20680;-43
2022/01/03 09:12:07;;;;;;;;;;;22.60;50.50;;;;;;6170526;27;21016;-43
2022/01/03 09:15:08;;;;;;;;;;;22.60;50.50;;;;;;6184497;27;20047;-48
2022/01/03 09:18:10;;;;;;;;;;;22.70;50.60;;;;;;6211758;27;20754;-45
2022/01/03 09:21:12;;;;;;;;;;;23.10;50.70;;;;;;6206106;27;19935;-44
2022/01/03 09:24:24;;;;;;;;;;;22.40;49.90;;;;;;6204982;27;19927;-45
2022/01/03 09:30:44;;;;;;;;;;;22.80;50.40;;;;;;6205452;27;20011;-48
2022/01/03 09:33:46;;;;;;;;;;;22.60;50.30;;;;;;6215770;27;19928;-43
2022/01/03 09:36:47;;;;;;;;;;;22.40;50.10;;;;;;6192277;27;20008;-46
2022/01/03 09:39:49;;;;;;;;;;;22.30;50.10;;;;;;6207118;27;19934;-45
2022/01/03 09:42:55;;;;;;;;;;;22.50;50.10;;;;;;6206036;27;20508;-46
2022/01/03 09:45:57;;;;;;;;;;;22.90;50.20;;;;;;6212705;27;19928;-49
2022/01/03 09:48:59;;;;;;;;;;;22.80;50.20;;;;;;6212003;27;20004;-45
2022/01/03 09:52:01;;;;;;;;;;;22.80;50.20;;;;;;6214870;27;19927;-44
2022/01/03 09:55:03;;;;;;;;;;;22.40;50.00;;;;;;6177559;27;20046;-43
2022/01/03 09:58:05;;;;;;;;;;;22.50;50.10;;;;;;6195394;27;19934;-43
2022/01/03 10:01:10;;;;;;;;;;;22.80;50.30;;;;;;6184389;27;21046;-44
2022/01/03 10:04:14;;;;;;;;;;;23.00;50.80;;;;;;6176580;27;19934;-44
2022/01/03 10:07:19;;;;;;;;;;;22.80;50.30;;;;;;6190047;27;19934;-43
2022/01/03 10:10:28;;;;;;;;;;;23.00;50.30;;;;;;6186119;27;19967;-45
2022/01/03 10:13:36;;;;;;;;;;;22.50;50.00;;;;;;6191111;27;19986;-44
2022/01/03 10:16:39;;;;;;;;;;;22.40;50.00;;;;;;6204491;27;20120;-46
2022/01/03 10:20:00;;;;;;;;;;;22.60;50.20;;;;;;6214660;27;19934;-44
2022/01/03 10:23:11;;;;;;;;;;;22.90;50.30;;;;;;6200691;27;19927;-43
2022/01/03 10:26:14;;;;;;;;;;;22.90;50.50;;;;;;6201844;27;21771;-43
2022/01/03 10:29:17;;;;;;;;;;;23.00;50.40;;;;;;6197429;27;19935;-43
2022/01/03 10:32:24;;;;;;;;;;;22.70;50.20;;;;;;6178562;27;19932;-43
2022/01/03 10:35:25;;;;;;;;;;;22.80;50.30;;;;;;6188973;27;19935;-43
2022/01/03 10:38:31;;;;;;;;;;;23.00;50.20;;;;;;6198849;27;19927;-45
2022/01/03 10:41:32;;;;;;;;;;;22.70;50.00;;;;;;6172802;27;19939;-43
2022/01/03 10:44:36;;;;;;;;;;;23.00;50.30;;;;;;6169730;27;19981;-48
2022/01/03 10:47:41;;;;;;;;;;;23.20;50.30;;;;;;6179453;27;19954;-44
2022/01/03 10:50:44;;;;;;;;;;;22.70;50.10;;;;;;6215252;27;19936;-45
2022/01/03 10:53:45;;;;;;;;;;;23.00;50.20;;;;;;6191008;27;19936;-45
2022/01/03 10:56:48;;;;;;;;;;;22.70;50.10;;;;;;6198816;27;20011;-48
2022/01/03 10:59:50;;;;;;;;;;;23.00;50.30;;;;;;6203868;27;19927;-48
2022/01/03 11:03:12;;;;;;;;;;;23.10;50.30;;;;;;6204969;27;22097;-45
2022/01/03 11:06:23;;;;;;;;;;;23.10;50.10;;;;;;6199435;27;20020;-46
2022/01/03 11:12:40;;;;;;;;;;;22.80;49.90;;;;;;6212730;27;19927;-44
2022/01/03 11:15:42;;;;;;;;;;;23.10;50.10;;;;;;6202204;27;19934;-44
2022/01/03 11:18:45;;;;;;;;;;;23.10;50.20;;;;;;6186511;27;19958;-44
2022/01/03 11:21:46;;;;;;;;;;;22.90;50.70;;;;;;6230370;27;20088;-44
2022/01/03 11:24:48;;;;;;;;;;;22.80;50.20;;;;;;6226813;27;19927;-44
2022/01/03 11:27:49;;;;;;;;;;;22.70;50.10;;;;;;6228111;27;20987;-46
2022/01/03 11:30:52;;;;;;;;;;;23.10;50.30;;;;;;6201414;27;21020;-46
2022/01/03 11:33:53;;;;;;;;;;;23.10;50.30;;;;;;6190588;27;19927;-44
2022/01/03 11:37:14;;;;;;;;;;;23.10;50.30;;;;;;6204113;27;19958;-45
2022/01/03 11:40:16;;;;;;;;;;;22.80;50.10;;;;;;6228378;27;19935;-49
2022/01/03 11:43:18;;;;;;;;;;;23.10;50.20;;;;;;6241370;27;20051;-46
2022/01/03 11:46:20;;;;;;;;;;;23.30;50.30;;;;;;6258745;27;21041;-44
2022/01/03 11:49:22;;;;;;;;;;;23.40;50.40;;;;;;6232178;27;19927;-44
2022/01/03 11:52:24;;;;;;;;;;;23.10;50.30;;;;;;6232806;27;21647;-44
2022/01/03 11:55:25;;;;;;;;;;;23.20;50.30;;;;;;6247238;27;20050;-47
2022/01/03 11:58:44;;;;;;;;;;;22.80;50.10;;;;;;6249522;27;19927;-47
2022/01/03 12:05:01;;;;;;;;;;;23.10;50.30;;;;;;6250427;27;20987;-44
2022/01/03 12:08:03;;;;;;;;;;;22.90;50.10;;;;;;6246518;27;19963;-45
2022/01/03 12:11:16;;;;;;;;;;;23.10;50.90;;;;;;6247232;27;19934;-47
2022/01/03 12:14:18;;;;;;;;;;;23.00;50.20;;;;;;6208970;27;19936;-44
2022/01/03 12:17:19;;;;;;;;;;;22.60;50.60;;;;;;6224355;27;19935;-44
2022/01/03 12:20:36;;;;;;;;;;;23.10;50.20;;;;;;6240756;27;19955;-48
2022/01/03 12:23:39;;;;;;;;;;;23.10;50.30;;;;;;6246922;27;19931;-46
2022/01/03 12:26:41;;;;;;;;;;;23.00;50.20;;;;;;6219073;27;19989;-45
2022/01/03 12:29:57;;;;;;;;;;;22.90;50.10;;;;;;6247033;27;21480;-47
2022/01/03 12:33:09;;;;;;;;;;;22.80;50.10;;;;;;6216400;27;19927;-46
2022/01/03 12:36:14;;;;;;;;;;;22.90;50.10;;;;;;6216480;27;19927;-49
2022/01/03 12:39:16;;;;;;;;;;;22.90;50.10;;;;;;6202082;27;19927;-42
2022/01/03 12:42:39;;;;;;;;;;;22.90;50.10;;;;;;6229116;27;20057;-43
2022/01/03 12:45:50;;;;;;;;;;;23.20;50.30;;;;;;6212687;27;19935;-42
2022/01/03 12:48:53;;;;;;;;;;;22.90;50.00;;;;;;6201197;27;19927;-44
2022/01/03 12:52:12;;;;;;;;;;;23.20;50.40;;;;;;6192399;27;20008;-44
2022/01/03 12:55:28;;;;;;;;;;;22.90;50.30;;;;;;6212121;27;21666;-45
2022/01/03 12:58:39;;;;;;;;;;;23.10;50.30;;;;;;6171899;27;19933;-47
2022/01/03 13:01:40;;;;;;;;;;;23.20;50.30;;;;;;6191935;27;19934;-42
2022/01/03 13:04:46;;;;;;;;;;;22.90;50.10;;;;;;6185565;27;19931;-42
2022/01/03 13:07:48;;;;;;;;;;;23.00;50.20;;;;;;6187548;27;19927;-44
2022/01/03 13:10:58;;;;;;;;;;;22.90;50.20;;;;;;6212354;27;19927;-45
2022/01/03 13:14:01;;;;;;;;;;;23.00;50.40;;;;;;6209845;27;19928;-42
2022/01/03 13:17:02;;;;;;;;;;;23.20;50.40;;;;;;6179306;27;19928;-43
2022/01/03 13:20:04;;;;;;;;;;;23.10;50.30;;;;;;6210724;27;19927;-42
2022/01/03 13:23:06;;;;;;;;;;;23.30;50.60;;;;;;6205274;27;19934;-43
2022/01/03 13:26:08;;;;;;;;;;;23.00;50.20;;;;;;6213420;27;19927;-43
2022/01/03 13:29:10;;;;;;;;;;;23.10;50.30;;;;;;6202911;27;19928;-41
2022/01/03 13:32:14;;;;;;;;;;;22.90;50.20;;;;;;6220045;27;20020;-45
2022/01/03 13:35:15;;;;;;;;;;;23.20;50.40;;;;;;6226721;27;19935;-44
2022/01/03 13:38:17;;;;;;;;;;;23.00;50.30;;;;;;6218426;27;20393;-42
2022/01/03 13:41:19;;;;;;;;;;;23.20;50.40;;;;;;6216772;27;19928;-43
2022/01/03 13:44:26;;;;;;;;;;;23.20;50.50;;;;;;6230331;27;19963;-42
2022/01/03 13:50:41;;;;;;;;;;;22.80;50.30;;;;;;6195029;27;19931;-42
2022/01/03 13:53:50;;;;;;;;;;;23.20;50.50;;;;;;6221349;27;19935;-43
2022/01/03 13:56:52;;;;;;;;;;;23.20;50.60;;;;;;6223656;27;19927;-41
2022/01/03 13:59:53;;;;;;;;;;;23.20;50.60;;;;;;6220099;27;19927;-42
2022/01/03 14:02:55;;;;;;;;;;;23.10;50.60;;;;;;6197599;27;19928;-43
2022/01/03 14:06:06;;;;;;;;;;;23.10;50.60;;;;;;6201554;27;19927;-44
2022/01/03 14:09:09;;;;;;;;;;;22.80;50.40;;;;;;6194351;27;19928;-44
2022/01/03 14:12:30;;;;;;;;;;;23.00;50.60;;;;;;6212609;27;19927;-45
2022/01/03 14:15:31;;;;;;;;;;;22.90;50.60;;;;;;6186580;27;19927;-46
2022/01/03 14:18:35;;;;;;;;;;;23.10;50.80;;;;;;6194617;27;19935;-48
2022/01/03 14:21:36;;;;;;;;;;;23.10;50.90;;;;;;6167425;27;19927;-44
2022/01/03 14:24:53;;;;;;;;;;;22.90;50.70;;;;;;6191409;27;20058;-47
2022/01/03 14:28:03;;;;;;;;;;;23.10;50.90;;;;;;6161958;27;21501;-44
2022/01/03 14:31:05;;;;;;;;;;;23.10;50.90;;;;;;6177031;27;21052;-48
2022/01/03 14:34:06;;;;;;;;;;;23.00;50.80;;;;;;6200643;27;20038;-46
2022/01/03 14:37:07;;;;;;;;;;;23.10;50.90;;;;;;6225012;27;20880;-48
2022/01/03 14:40:10;;;;;;;;;;;22.80;50.80;;;;;;6216248;27;19933;-44
2022/01/03 14:43:19;;;;;;;;;;;23.00;51.00;;;;;;6219106;27;20122;-45
2022/01/03 14:46:27;;;;;;;;;;;22.80;50.90;;;;;;6190405;27;21479;-47
2022/01/03 14:49:29;;;;;;;;;;;23.00;51.00;;;;;;6205904;27;19997;-43
2022/01/03 14:52:32;;;;;;;;;;;22.90;50.80;;;;;;6191675;27;19973;-44
2022/01/03 14:55:37;;;;;;;;;;;22.80;50.80;;;;;;6211617;27;20058;-45
2022/01/03 14:58:39;;;;;;;;;;;22.90;51.00;;;;;;6197808;27;19935;-45
2022/01/03 15:01:42;;;;;;;;;;;23.10;51.00;;;;;;6188504;27;19934;-44
2022/01/03 15:04:43;;;;;;;;;;;22.70;50.80;;;;;;6207524;27;20042;-45
2022/01/03 15:08:02;;;;;;;;;;;23.10;51.10;;;;;;6179684;27;19934;-44
2022/01/03 15:11:04;;;;;;;;;;;23.00;51.20;;;;;;6211035;27;20061;-46
2022/01/03 15:14:06;;;;;;;;;;;23.00;51.10;;;;;;6175611;27;21727;-45
2022/01/03 15:17:07;;;;;;;;;;;22.80;50.90;;;;;;6181581;27;19930;-45
2022/01/03 15:20:10;;;;;;;;;;;22.90;51.00;;;;;;6208624;27;19989;-46
2022/01/03 15:23:17;;;;;;;;;;;22.90;51.10;;;;;;6185799;27;20808;-43
2022/01/03 15:26:18;;;;;;;;;;;22.90;51.10;;;;;;6211767;27;19927;-43
2022/01/03 15:29:20;;;;;;;;;;;22.70;51.00;;;;;;6201232;27;20125;-43
2022/01/03 15:32:22;;;;;;;;;;;22.90;51.10;;;;;;6223430;27;20058;-44
2022/01/03 15:35:23;;;;;;;;;;;23.00;51.30;;;;;;6201546;27;19939;-43
2022/01/03 15:38:25;;;;;;;;;;;23.00;51.30;;;;;;6211386;27;19949;-43
2022/01/03 15:41:27;;;;;;;;;;;23.10;51.90;;;;;;6217073;27;22039;-44
2022/01/03 15:44:29;;;;;;;;;;;22.80;51.10;;;;;;6226702;27;19958;-43
2022/01/03 15:47:31;;;;;;;;;;;23.00;51.20;;;;;;6204946;27;20044;-44
2022/01/03 15:50:33;;;;;;;;;;;22.70;51.20;;;;;;6218920;27;20001;-43
2022/01/03 15:53:34;;;;;;;;;;;23.10;51.30;;;;;;6209495;27;19942;-44
2022/01/03 15:56:36;;;;;;;;;;;22.80;51.30;;;;;;6196840;27;19928;-43
2022/01/03 15:59:38;;;;;;;;;;;22.80;51.20;;;;;;6192883;27;20057;-43
2022/01/03 16:02:39;;;;;;;;;;;22.90;51.30;;;;;;6209106;27;20002;-45
2022/01/03 16:05:41;;;;;;;;;;;23.10;51.40;;;;;;6185408;27;20042;-47
2022/01/03 16:08:42;;;;;;;;;;;22.60;51.20;;;;;;6199967;27;19927;-44
2022/01/03 16:11:43;;;;;;;;;;;23.30;51.60;;;;;;6221216;27;21985;-44
2022/01/03 16:14:45;;;;;;;;;;;22.80;51.30;;;;;;6223994;27;20004;-43
2022/01/03 16:17:47;;;;;;;;;;;22.90;51.50;;;;;;6214953;27;19934;-46
2022/01/03 16:20:49;;;;;;;;;;;22.80;51.40;;;;;;6208188;27;20977;-46
2022/01/03 16:23:51;;;;;;;;;;;22.90;51.40;;;;;;6210316;27;19928;-44
2022/01/03 16:26:52;;;;;;;;;;;23.40;51.80;;;;;;6200262;27;19986;-44
2022/01/03 16:29:54;;;;;;;;;;;22.50;51.20;;;;;;6198285;27;19928;-43
2022/01/03 16:32:55;;;;;;;;;;;22.80;51.40;;;;;;6205851;27;19936;-49
2022/01/03 16:35:57;;;;;;;;;;;22.50;51.30;;;;;;6221962;27;19927;-45
2022/01/03 16:38:58;;;;;;;;;;;22.70;51.40;;;;;;6227196;27;19926;-43
2022/01/03 16:42:00;;;;;;;;;;;22.40;51.20;;;;;;6224650;27;20000;-44
2022/01/03 16:45:02;;;;;;;;;;;22.60;51.30;;;;;;6223428;27;19941;-44
2022/01/03 16:48:04;;;;;;;;;;;23.00;51.50;;;;;;6222976;27;19929;-44
2022/01/03 16:51:05;;;;;;;;;;;22.30;51.20;;;;;;6215839;27;19959;-48
2022/01/03 16:54:07;;;;;;;;;;;22.60;51.30;;;;;;6225415;27;22009;-44
2022/01/03 16:57:08;;;;;;;;;;;22.80;51.50;;;;;;6219645;27;19934;-44
2022/01/03 17:00:10;;;;;;;;;;;22.60;51.40;;;;;;6227407;27;19932;-44
2022/01/03 17:03:12;;;;;;;;;;;22.90;51.60;;;;;;6241623;27;19935;-45
2022/01/03 17:06:14;;;;;;;;;;;22.80;51.60;;;;;;6232126;27;19975;-45
2022/01/03 17:09:15;;;;;;;;;;;22.30;51.40;;;;;;6248354;27;19927;-44
2022/01/03 17:12:17;;;;;;;;;;;22.70;51.70;;;;;;6261550;27;20038;-44
2022/01/03 17:15:18;;;;;;;;;;;22.60;51.70;;;;;;6253148;27;20050;-43
2022/01/03 17:18:20;;;;;;;;;;;22.40;51.60;;;;;;6254609;27;20046;-43
2022/01/03 17:21:21;;;;;;;;;;;22.80;51.90;;;;;;6265127;27;21206;-44
2022/01/03 17:24:22;;;;;;;;;;;22.50;51.90;;;;;;6265191;27;19927;-45
2022/01/03 17:27:24;;;;;;;;;;;22.60;52.00;;;;;;6273884;27;19927;-45
2022/01/03 17:30:26;;;;;;;;;;;22.60;52.00;;;;;;6266089;27;20018;-45
2022/01/03 17:33:29;;;;;;;;;;;22.70;52.10;;;;;;6267155;27;20894;-43
2022/01/03 17:36:31;;;;;;;;;;;22.40;52.00;;;;;;6244895;27;19927;-44
2022/01/03 17:39:33;;;;;;;;;;;22.30;52.00;;;;;;6266303;27;20965;-43
2022/01/03 17:42:35;;;;;;;;;;;22.40;52.00;;;;;;6293727;27;19934;-43
2022/01/03 17:45:36;;;;;;;;;;;22.70;52.20;;;;;;6277115;27;19934;-43
2022/01/03 17:48:38;;;;;;;;;;;22.40;52.00;;;;;;6279529;27;22492;-45
2022/01/03 17:51:39;;;;;;;;;;;22.10;51.80;;;;;;6281389;27;19982;-47
2022/01/03 17:54:41;;;;;;;;;;;22.70;52.10;;;;;;6280639;27;19933;-46
2022/01/03 17:57:42;;;;;;;;;;;22.30;52.00;;;;;;6285066;27;20046;-44
2022/01/03 18:00:44;;;;;;;;;;;22.40;52.00;;;;;;6284226;27;19928;-46
2022/01/03 18:03:46;;;;;;;;;;;22.00;51.80;;;;;;6280494;27;21297;-44
2022/01/03 18:06:49;;;;;;;;;;;22.00;51.80;;;;;;6284422;27;19924;-45